Time;durP1;ratioP1;P1;durP2;ratioP2;P2;SDS_P1;SDS_P2;PMS_P1;PMS_P2;Temp;Humidity;BMP_temperature;BMP_pressure;BME280_temperature;BME280_humidity;BME280_pressure;Samples;Min_cycle;Max_cycle;Signal;HPM_P1;HPM_P2
2023/09/28 00:02:53;;;;;;;13.68;7.88;;;27.80;44.60;;;;;;5000795;28;20041;-68
2023/09/28 00:05:20;;;;;;;8.40;6.65;;;27.90;44.60;;;;;;5011391;28;20034;-68
2023/09/28 00:07:47;;;;;;;15.65;7.18;;;27.80;44.60;;;;;;5007191;28;20394;-68
2023/09/28 00:10:15;;;;;;;12.00;6.55;;;27.80;44.70;;;;;;5005659;28;20141;-69
2023/09/28 00:12:49;;;;;;;9.60;6.68;;;27.80;44.70;;;;;;5009822;28;20478;-69
2023/09/28 00:15:15;;;;;;;9.45;5.50;;;27.80;44.70;;;;;;5010860;28;20037;-68
2023/09/28 00:17:42;;;;;;;11.23;6.25;;;27.80;44.80;;;;;;5010878;28;20037;-68
2023/09/28 00:20:17;;;;;;;10.65;6.65;;;27.80;44.90;;;;;;5011001;28;20036;-69
2023/09/28 00:22:44;;;;;;;11.55;6.13;;;27.70;44.90;;;;;;5011241;28;20058;-68
2023/09/28 00:25:10;;;;;;;12.25;6.63;;;27.70;45.00;;;;;;5011356;28;20057;-68
2023/09/28 00:27:38;;;;;;;7.82;5.95;;;27.70;45.10;;;;;;5010571;28;20045;-69
2023/09/28 00:30:06;;;;;;;14.30;6.78;;;27.70;45.10;;;;;;5009090;28;20034;-68
2023/09/28 00:32:33;;;;;;;12.85;7.10;;;27.70;45.20;;;;;;5010947;28;20178;-68
2023/09/28 00:34:59;;;;;;;16.77;6.45;;;27.70;45.20;;;;;;4993177;28;20383;-68
2023/09/28 00:37:25;;;;;;;12.32;6.68;;;27.70;45.20;;;;;;5010791;28;20045;-69
2023/09/28 00:39:54;;;;;;;13.30;6.28;;;27.60;45.30;;;;;;5009834;28;20077;-68
2023/09/28 00:42:21;;;;;;;12.43;6.55;;;27.70;45.30;;;;;;5010054;28;20022;-68
2023/09/28 00:44:47;;;;;;;12.38;6.43;;;27.80;45.30;;;;;;4992819;28;20033;-68
2023/09/28 00:47:13;;;;;;;9.05;5.63;;;27.80;45.40;;;;;;5009253;28;20378;-68
2023/09/28 00:49:40;;;;;;;9.23;6.03;;;27.70;45.40;;;;;;5010566;28;20038;-68
2023/09/28 00:52:07;;;;;;;12.80;7.38;;;27.80;45.50;;;;;;4996736;28;20034;-70
2023/09/28 00:54:35;;;;;;;12.85;6.43;;;27.60;45.50;;;;;;5010478;28;20407;-68
2023/09/28 00:57:01;;;;;;;13.40;6.22;;;27.70;45.50;;;;;;5009651;28;20113;-69
2023/09/28 00:59:27;;;;;;;10.75;6.55;;;27.70;45.50;;;;;;5010272;28;20105;-69
2023/09/28 01:01:55;;;;;;;12.45;7.00;;;27.80;45.50;;;;;;5008669;28;20461;-68
2023/09/28 01:04:22;;;;;;;9.95;5.93;;;27.80;45.50;;;;;;5010063;28;20037;-69
2023/09/28 01:06:48;;;;;;;14.32;7.03;;;27.80;45.50;;;;;;5009190;28;20049;-68
2023/09/28 01:09:15;;;;;;;13.32;6.07;;;27.70;45.60;;;;;;5009119;28;20477;-68
2023/09/28 01:11:42;;;;;;;9.90;7.82;;;27.70;45.60;;;;;;5010964;28;20098;-68
2023/09/28 01:14:08;;;;;;;9.80;6.55;;;27.80;45.60;;;;;;5013950;28;20855;-68
2023/09/28 01:16:35;;;;;;;12.45;6.22;;;27.60;45.60;;;;;;4993188;28;20125;-69
2023/09/28 01:19:03;;;;;;;10.15;6.70;;;27.60;45.70;;;;;;4994750;28;20446;-68
2023/09/28 01:21:30;;;;;;;16.25;6.97;;;27.60;45.80;;;;;;5014272;28;20058;-68
2023/09/28 01:23:57;;;;;;;12.65;6.38;;;27.70;45.80;;;;;;5013207;28;20034;-68
2023/09/28 01:26:23;;;;;;;15.18;6.55;;;27.70;45.80;;;;;;5013963;28;20029;-68
2023/09/28 01:28:49;;;;;;;12.38;6.90;;;27.70;45.90;;;;;;5012627;28;20042;-68
2023/09/28 01:31:15;;;;;;;11.95;6.30;;;27.50;45.90;;;;;;5013555;28;20034;-68
2023/09/28 01:33:42;;;;;;;9.65;6.07;;;27.60;45.90;;;;;;5014628;28;20488;-68
2023/09/28 01:36:08;;;;;;;21.10;7.30;;;27.70;46.00;;;;;;5013994;28;20030;-68
2023/09/28 01:38:40;;;;;;;11.82;6.55;;;27.60;46.00;;;;;;5014094;28;20030;-69
2023/09/28 01:41:06;;;;;;;13.50;7.15;;;27.60;46.00;;;;;;5013207;28;20516;-69
2023/09/28 01:43:32;;;;;;;13.13;7.18;;;27.60;46.00;;;;;;5013630;28;20124;-69
2023/09/28 01:45:58;;;;;;;12.00;5.68;;;27.70;46.10;;;;;;5012214;28;20117;-69
2023/09/28 01:48:24;;;;;;;12.73;6.53;;;27.70;46.10;;;;;;5012110;28;20038;-68
2023/09/28 01:50:50;;;;;;;14.48;6.75;;;27.80;46.10;;;;;;5011616;28;20375;-68
2023/09/28 01:53:16;;;;;;;15.20;6.70;;;27.70;46.10;;;;;;5012454;28;20034;-68
2023/09/28 01:55:42;;;;;;;13.48;6.60;;;27.50;46.20;;;;;;5013670;28;20498;-68
2023/09/28 01:58:08;;;;;;;11.30;6.70;;;27.70;46.20;;;;;;5012180;28;20037;-68
2023/09/28 02:00:38;;;;;;;10.38;6.07;;;27.50;46.20;;;;;;5007070;28;20037;-69
2023/09/28 02:03:05;;;;;;;12.45;7.03;;;27.70;46.20;;;;;;5012266;28;20030;-68
2023/09/28 02:05:34;;;;;;;11.20;6.60;;;27.60;46.20;;;;;;5011642;28;20053;-68
2023/09/28 02:08:05;;;;;;;12.57;6.78;;;27.60;46.20;;;;;;5012340;28;20041;-68
2023/09/28 02:10:32;;;;;;;16.48;6.80;;;27.70;46.20;;;;;;5011582;28;20038;-68
2023/09/28 02:12:59;;;;;;;9.80;6.47;;;27.70;46.20;;;;;;5013261;28;20463;-68
2023/09/28 02:15:25;;;;;;;9.98;6.55;;;27.60;46.20;;;;;;5010700;28;20038;-68
2023/09/28 02:17:51;;;;;;;13.90;6.53;;;27.80;46.20;;;;;;5013261;28;20034;-68
2023/09/28 02:20:22;;;;;;;11.32;6.20;;;27.60;46.30;;;;;;5012545;28;20400;-68
2023/09/28 02:22:52;;;;;;;11.25;6.50;;;27.60;46.30;;;;;;5012741;28;20135;-68
2023/09/28 02:25:20;;;;;;;8.23;6.10;;;27.60;46.30;;;;;;5012712;28;20085;-68
2023/09/28 02:27:47;;;;;;;12.30;6.53;;;27.50;46.30;;;;;;5012289;28;20030;-68
2023/09/28 02:30:22;;;;;;;13.80;6.78;;;27.70;46.40;;;;;;5010306;28;20038;-68
2023/09/28 02:32:49;;;;;;;10.48;6.15;;;27.60;46.40;;;;;;4995201;28;20030;-68
2023/09/28 02:35:16;;;;;;;18.05;7.53;;;27.50;46.50;;;;;;5011120;28;20041;-68
2023/09/28 02:37:45;;;;;;;16.10;6.47;;;27.50;46.50;;;;;;4994534;28;20490;-68
2023/09/28 02:40:12;;;;;;;15.70;7.07;;;27.50;46.50;;;;;;5010791;28;20032;-68
2023/09/28 02:42:38;;;;;;;14.63;6.63;;;27.60;46.50;;;;;;5010913;28;20037;-69
2023/09/28 02:45:11;;;;;;;12.55;7.25;;;27.60;46.60;;;;;;5012134;28;20053;-69
2023/09/28 02:47:48;;;;;;;14.73;7.05;;;27.50;46.60;;;;;;5010994;28;20038;-68
2023/09/28 02:50:16;;;;;;;12.05;6.70;;;27.50;46.60;;;;;;5013095;28;20045;-69
2023/09/28 02:52:46;;;;;;;11.07;6.63;;;27.50;46.60;;;;;;4993190;28;20040;-69
2023/09/28 02:55:12;;;;;;;14.63;7.13;;;27.50;46.70;;;;;;4991569;28;20046;-69
2023/09/28 02:57:41;;;;;;;12.20;6.95;;;27.60;46.70;;;;;;5002164;28;20446;-69
2023/09/28 03:00:17;;;;;;;17.27;7.63;;;27.50;46.70;;;;;;5011358;28;20116;-68
2023/09/28 03:02:44;;;;;;;14.82;6.85;;;27.50;46.70;;;;;;4992976;28;20081;-68
2023/09/28 03:05:10;;;;;;;12.60;7.05;;;27.60;46.70;;;;;;4993861;28;20080;-68
2023/09/28 03:07:39;;;;;;;13.80;6.72;;;27.60;46.70;;;;;;5012417;28;20026;-68
2023/09/28 03:10:06;;;;;;;14.13;6.65;;;27.60;46.70;;;;;;5010798;28;20034;-68
2023/09/28 03:12:32;;;;;;;9.60;6.32;;;27.60;46.70;;;;;;5010283;28;20037;-68
2023/09/28 03:14:58;;;;;;;13.60;6.78;;;27.70;46.70;;;;;;5011676;28;20044;-68
2023/09/28 03:17:24;;;;;;;14.05;6.75;;;27.60;46.70;;;;;;5009885;28;21015;-68
2023/09/28 03:19:51;;;;;;;14.88;7.13;;;27.70;46.70;;;;;;5011654;28;20061;-68
2023/09/28 03:22:19;;;;;;;13.98;7.05;;;27.50;46.70;;;;;;5012261;28;20096;-68
2023/09/28 03:24:47;;;;;;;11.90;7.15;;;27.60;46.70;;;;;;5010770;28;20478;-68
2023/09/28 03:27:13;;;;;;;13.68;7.28;;;27.60;46.80;;;;;;5011367;28;20041;-68
2023/09/28 03:29:41;;;;;;;11.77;6.72;;;27.60;46.70;;;;;;5010283;28;20045;-68
2023/09/28 03:32:06;;;;;;;13.45;6.45;;;27.40;46.80;;;;;;5011968;28;20068;-68
2023/09/28 03:34:33;;;;;;;14.63;7.25;;;27.50;46.80;;;;;;5010849;28;20459;-69
2023/09/28 03:36:58;;;;;;;11.52;6.45;;;27.60;46.80;;;;;;4994287;28;20482;-68
2023/09/28 03:39:25;;;;;;;11.50;7.07;;;27.50;46.90;;;;;;5011798;28;20038;-68
2023/09/28 03:41:51;;;;;;;9.35;6.72;;;27.60;46.90;;;;;;5010007;28;20396;-68
2023/09/28 03:44:16;;;;;;;9.82;6.43;;;27.50;46.90;;;;;;5009789;28;20036;-68
2023/09/28 03:46:42;;;;;;;15.77;6.30;;;27.50;46.90;;;;;;5011684;28;20062;-68
2023/09/28 03:49:08;;;;;;;11.40;6.85;;;27.50;47.00;;;;;;5010219;28;20104;-68
2023/09/28 03:51:35;;;;;;;15.48;6.38;;;27.60;47.00;;;;;;5011259;28;20068;-68
2023/09/28 03:54:00;;;;;;;12.25;6.10;;;27.50;47.00;;;;;;5010394;28;20034;-68
2023/09/28 03:56:28;;;;;;;12.25;6.35;;;27.50;47.00;;;;;;5010816;28;20375;-68
2023/09/28 03:58:54;;;;;;;11.70;6.40;;;27.50;47.10;;;;;;5003679;28;20069;-68
2023/09/28 04:01:20;;;;;;;13.25;6.43;;;27.50;47.20;;;;;;5006264;28;20034;-68
2023/09/28 04:03:46;;;;;;;11.55;6.57;;;27.50;47.20;;;;;;5011569;28;20072;-68
2023/09/28 04:06:12;;;;;;;11.48;6.53;;;27.50;47.20;;;;;;5011267;28;20026;-68
2023/09/28 04:08:39;;;;;;;9.13;6.00;;;27.40;47.20;;;;;;5011364;28;20088;-68
2023/09/28 04:11:05;;;;;;;13.18;6.28;;;27.50;47.20;;;;;;5010363;28;20104;-68
2023/09/28 04:13:31;;;;;;;17.65;7.15;;;27.50;47.30;;;;;;5011049;28;20068;-68
2023/09/28 04:15:56;;;;;;;16.38;6.40;;;27.70;47.20;;;;;;5011401;28;20145;-68
2023/09/28 04:18:22;;;;;;;8.98;6.40;;;27.50;47.20;;;;;;5010959;28;20060;-67
2023/09/28 04:20:48;;;;;;;13.98;5.90;;;27.60;47.20;;;;;;5010500;28;20492;-68
2023/09/28 04:23:14;;;;;;;14.57;6.80;;;27.50;47.20;;;;;;5011156;28;20034;-68
2023/09/28 04:25:40;;;;;;;8.65;5.63;;;27.50;47.20;;;;;;5010936;28;20030;-69
2023/09/28 04:28:06;;;;;;;13.93;6.43;;;27.50;47.20;;;;;;5009988;28;20474;-68
2023/09/28 04:30:34;;;;;;;17.10;6.68;;;27.50;47.20;;;;;;5007602;28;20046;-68
2023/09/28 04:33:00;;;;;;;17.17;7.25;;;27.70;47.20;;;;;;4988937;28;20066;-68
2023/09/28 04:35:25;;;;;;;11.65;6.47;;;27.60;47.20;;;;;;4991415;28;20462;-68
2023/09/28 04:37:52;;;;;;;10.05;7.18;;;27.50;47.20;;;;;;4970460;28;20054;-69
2023/09/28 04:40:24;;;;;;;11.15;6.88;;;27.50;47.40;;;;;;5008095;28;20060;-71
2023/09/28 04:42:50;;;;;;;3.23;2.23;;;27.50;50.00;;;;;;4983970;28;20046;-70
2023/09/28 04:45:16;;;;;;;2.75;2.53;;;27.70;48.40;;;;;;5008200;28;20671;-70
2023/09/28 04:47:42;;;;;;;4.40;2.30;;;27.70;47.40;;;;;;4994367;28;20081;-70
2023/09/28 04:50:08;;;;;;;2.97;2.10;;;27.80;48.70;;;;;;4992385;28;20091;-69
2023/09/28 04:52:35;;;;;;;5.45;2.30;;;27.80;48.80;;;;;;5011041;28;20041;-69
2023/09/28 04:55:01;;;;;;;4.50;3.20;;;28.00;49.70;;;;;;5011833;28;20045;-68
2023/09/28 04:57:27;;;;;;;6.82;4.43;;;27.90;49.00;;;;;;5012345;28;20026;-69
2023/09/28 04:59:53;;;;;;;8.10;4.57;;;27.90;48.40;;;;;;5012165;28;20034;-69
2023/09/28 05:02:20;;;;;;;7.50;4.40;;;27.90;46.60;;;;;;5013654;28;20560;-73
2023/09/28 05:04:46;;;;;;;9.82;4.53;;;27.70;46.10;;;;;;5014867;28;20041;-73
2023/09/28 05:07:12;;;;;;;7.63;4.82;;;27.80;45.90;;;;;;5014062;28;20038;-72
2023/09/28 05:09:38;;;;;;;9.80;5.70;;;27.90;45.50;;;;;;5013350;28;20053;-70
2023/09/28 05:12:04;;;;;;;12.80;5.88;;;27.80;44.40;;;;;;5014180;28;20029;-71
2023/09/28 05:14:31;;;;;;;8.23;4.45;;;27.70;46.60;;;;;;5014094;28;20076;-71
2023/09/28 05:16:56;;;;;;;11.18;4.63;;;27.80;44.40;;;;;;5014053;28;20030;-69
2023/09/28 05:19:22;;;;;;;7.95;4.68;;;27.70;43.90;;;;;;5013588;28;20448;-70
2023/09/28 05:21:49;;;;;;;12.98;8.25;;;28.00;44.20;;;;;;5013798;28;20116;-70
2023/09/28 05:24:15;;;;;;;12.70;7.82;;;27.80;43.50;;;;;;5012706;28;20108;-70
2023/09/28 05:26:41;;;;;;;19.90;8.38;;;27.80;43.80;;;;;;5009851;28;20218;-71
2023/09/28 05:29:07;;;;;;;17.08;7.43;;;27.80;43.80;;;;;;5011986;28;20492;-70
2023/09/28 05:31:33;;;;;;;16.50;7.75;;;27.80;44.00;;;;;;5009406;28;20073;-71
2023/09/28 05:33:59;;;;;;;18.70;7.60;;;27.90;44.30;;;;;;5011541;28;20058;-71
2023/09/28 05:36:25;;;;;;;12.80;7.70;;;27.80;44.70;;;;;;5012955;28;20097;-72
2023/09/28 05:38:51;;;;;;;19.60;8.85;;;27.80;44.90;;;;;;5012564;28;20176;-70
2023/09/28 05:41:17;;;;;;;12.23;6.10;;;27.80;45.20;;;;;;5013578;28;20037;-71
2023/09/28 05:43:43;;;;;;;23.88;8.15;;;27.70;45.40;;;;;;5012895;28;20096;-71
2023/09/28 05:46:09;;;;;;;15.45;6.68;;;27.90;45.50;;;;;;5012926;28;20038;-71
2023/09/28 05:48:37;;;;;;;15.23;7.78;;;27.80;45.50;;;;;;5012074;28;20049;-70
2023/09/28 05:51:03;;;;;;;15.45;6.88;;;27.90;45.50;;;;;;5013233;28;20034;-71
2023/09/28 05:53:29;;;;;;;16.35;6.90;;;27.90;45.60;;;;;;5006995;28;20045;-68
2023/09/28 05:55:55;;;;;;;13.95;6.65;;;27.90;45.80;;;;;;5013007;28;20042;-71
2023/09/28 05:58:21;;;;;;;13.15;6.93;;;27.90;45.90;;;;;;5010176;28;20033;-72
2023/09/28 06:00:47;;;;;;;13.10;7.28;;;27.80;46.00;;;;;;5010636;28;20117;-72
2023/09/28 06:03:13;;;;;;;13.43;6.90;;;27.90;46.10;;;;;;5011642;28;20038;-71
2023/09/28 06:05:40;;;;;;;15.20;8.00;;;27.90;46.10;;;;;;5010890;28;20037;-70
2023/09/28 06:08:06;;;;;;;21.23;7.45;;;27.90;46.10;;;;;;5012365;28;20057;-70
2023/09/28 06:10:33;;;;;;;10.93;6.15;;;27.90;46.10;;;;;;5012623;28;20121;-71
2023/09/28 06:12:59;;;;;;;19.48;7.10;;;27.90;46.30;;;;;;4998419;28;20074;-71
2023/09/28 06:15:25;;;;;;;15.35;7.57;;;28.00;47.00;;;;;;5012850;28;20030;-71
2023/09/28 06:17:51;;;;;;;13.95;4.90;;;27.90;46.60;;;;;;5013321;28;20049;-71
2023/09/28 06:20:17;;;;;;;7.65;4.97;;;27.90;46.80;;;;;;5013315;28;20525;-70
2023/09/28 06:22:43;;;;;;;9.90;4.40;;;28.00;47.40;;;;;;5026696;28;20061;-71
2023/09/28 06:25:10;;;;;;;7.90;5.65;;;27.90;47.00;;;;;;5013231;28;20040;-70
2023/09/28 06:27:37;;;;;;;13.30;5.00;;;28.00;49.00;;;;;;5013132;28;20038;-72
2023/09/28 06:30:04;;;;;;;7.80;5.28;;;28.10;49.00;;;;;;5012704;28;20390;-71
2023/09/28 06:32:31;;;;;;;12.85;5.30;;;28.00;48.40;;;;;;5013007;28;20091;-71
2023/09/28 06:34:57;;;;;;;8.43;4.63;;;27.90;47.80;;;;;;5011393;28;20029;-71
2023/09/28 06:37:23;;;;;;;13.85;3.97;;;28.00;48.40;;;;;;5010031;28;20128;-73
2023/09/28 06:39:49;;;;;;;6.68;4.07;;;28.00;48.30;;;;;;5010457;28;20037;-72
2023/09/28 06:42:15;;;;;;;15.18;5.68;;;28.00;48.10;;;;;;5012113;28;20034;-71
2023/09/28 06:44:41;;;;;;;10.45;4.95;;;28.10;47.90;;;;;;5011973;28;20036;-72
2023/09/28 06:47:07;;;;;;;8.80;5.20;;;28.10;47.80;;;;;;5011072;28;20049;-72
2023/09/28 06:49:34;;;;;;;6.10;4.28;;;28.00;47.70;;;;;;5011797;28;20045;-71
2023/09/28 06:52:00;;;;;;;8.68;4.97;;;28.00;47.60;;;;;;5012274;28;20084;-71
2023/09/28 06:54:27;;;;;;;8.65;5.25;;;28.10;47.50;;;;;;5012387;28;20037;-72
2023/09/28 06:56:52;;;;;;;7.20;4.75;;;28.10;47.40;;;;;;5011347;28;20038;-71
2023/09/28 06:59:19;;;;;;;8.60;5.03;;;28.10;47.30;;;;;;5012237;28;20030;-71
2023/09/28 07:01:45;;;;;;;6.97;4.97;;;28.20;47.30;;;;;;5012305;28;20029;-70
2023/09/28 07:04:11;;;;;;;6.40;4.25;;;28.10;47.30;;;;;;5012323;28;20103;-70
2023/09/28 07:06:37;;;;;;;12.73;6.45;;;28.10;47.30;;;;;;5012247;28;20043;-70
2023/09/28 07:09:05;;;;;;;5.65;3.97;;;28.10;47.30;;;;;;5011210;28;20057;-71
2023/09/28 07:11:32;;;;;;;5.85;3.92;;;28.10;47.30;;;;;;5012243;28;20037;-72
2023/09/28 07:13:58;;;;;;;7.93;4.40;;;28.10;47.40;;;;;;5011794;28;20048;-70
2023/09/28 07:16:24;;;;;;;9.00;4.88;;;28.20;47.40;;;;;;5011803;28;20477;-71
2023/09/28 07:18:49;;;;;;;7.93;5.07;;;28.10;47.40;;;;;;5011667;28;20390;-71
2023/09/28 07:21:16;;;;;;;9.93;4.82;;;28.10;47.50;;;;;;5011585;28;20092;-71
2023/09/28 07:23:42;;;;;;;8.00;4.30;;;28.30;47.50;;;;;;4994445;28;20038;-71
2023/09/28 07:26:16;;;;;;;8.45;4.95;;;28.10;47.60;;;;;;5011538;28;20033;-71
2023/09/28 07:28:43;;;;;;;8.65;4.32;;;28.10;47.60;;;;;;5010320;28;20065;-70
2023/09/28 07:31:09;;;;;;;7.93;4.97;;;28.20;47.60;;;;;;5010655;28;20128;-72
2023/09/28 07:33:36;;;;;;;7.05;4.53;;;28.20;47.60;;;;;;5026047;28;20470;-71
2023/09/28 07:36:05;;;;;;;9.45;5.13;;;28.10;47.50;;;;;;5011940;28;20056;-72
2023/09/28 07:38:32;;;;;;;6.05;4.85;;;28.10;47.60;;;;;;5011968;28;20076;-71
2023/09/28 07:41:02;;;;;;;5.78;4.13;;;28.00;47.60;;;;;;5011628;28;20026;-71
2023/09/28 07:43:29;;;;;;;5.13;4.53;;;28.20;47.70;;;;;;5009629;28;20038;-71
2023/09/28 07:45:55;;;;;;;7.50;4.50;;;28.00;47.60;;;;;;4992066;28;20038;-71
2023/09/28 07:48:21;;;;;;;8.90;4.65;;;28.10;47.70;;;;;;4992356;28;20049;-72
2023/09/28 07:50:48;;;;;;;8.88;5.00;;;28.10;47.60;;;;;;4992149;28;20459;-71
2023/09/28 07:53:14;;;;;;;6.82;4.35;;;28.10;47.60;;;;;;4991978;28;20034;-72
2023/09/28 07:55:40;;;;;;;6.40;4.30;;;28.00;47.70;;;;;;5006905;28;20049;-72
2023/09/28 07:58:06;;;;;;;5.05;4.00;;;28.10;47.70;;;;;;5006635;28;20086;-72
2023/09/28 08:00:32;;;;;;;16.17;7.13;;;28.00;47.80;;;;;;5007367;28;20088;-72
2023/09/28 08:02:58;;;;;;;10.52;6.20;;;28.00;47.70;;;;;;5010873;28;20036;-72
2023/09/28 08:05:24;;;;;;;7.47;4.80;;;28.00;47.70;;;;;;5011492;28;20121;-71
2023/09/28 08:07:50;;;;;;;7.03;4.50;;;28.10;47.70;;;;;;5011376;28;20065;-72
2023/09/28 08:10:16;;;;;;;9.77;5.85;;;28.10;47.70;;;;;;5011400;28;20489;-72
2023/09/28 08:12:44;;;;;;;9.35;4.50;;;28.10;47.70;;;;;;5010590;28;20029;-71
2023/09/28 08:15:10;;;;;;;9.48;4.68;;;28.00;47.70;;;;;;5011379;28;20030;-72
2023/09/28 08:17:39;;;;;;;8.77;5.88;;;28.00;47.70;;;;;;5010809;28;20463;-72
2023/09/28 08:20:07;;;;;;;9.25;4.78;;;28.10;47.60;;;;;;5011365;28;20090;-72
2023/09/28 08:22:34;;;;;;;12.00;6.47;;;28.00;47.70;;;;;;5015214;28;20058;-71
2023/09/28 08:25:00;;;;;;;10.27;5.22;;;28.00;47.70;;;;;;5014368;28;20061;-72
2023/09/28 08:27:26;;;;;;;13.77;6.13;;;28.20;47.70;;;;;;5014889;28;20058;-73
2023/09/28 08:29:52;;;;;;;10.10;5.47;;;28.00;47.70;;;;;;5015309;28;20084;-72
2023/09/28 08:32:18;;;;;;;6.70;4.38;;;28.10;47.70;;;;;;5014797;28;20034;-72
2023/09/28 08:34:44;;;;;;;5.25;4.30;;;28.10;47.70;;;;;;5014956;28;20033;-72
2023/09/28 08:37:10;;;;;;;6.30;4.78;;;28.10;47.70;;;;;;5014725;28;20069;-71
2023/09/28 08:39:37;;;;;;;8.98;4.55;;;27.90;47.20;;;;;;5014876;28;20026;-72
2023/09/28 08:42:06;;;;;;;13.38;5.75;;;28.10;47.70;;;;;;5014718;28;20042;-72
2023/09/28 08:44:34;;;;;;;12.43;5.95;;;28.10;47.70;;;;;;5013985;28;20070;-71
2023/09/28 08:47:00;;;;;;;11.10;5.10;;;28.10;47.70;;;;;;5013668;28;20038;-72
2023/09/28 08:49:29;;;;;;;8.38;4.97;;;28.00;47.70;;;;;;5014926;28;20030;-71
2023/09/28 08:51:55;;;;;;;11.52;4.95;;;27.90;47.20;;;;;;5014865;28;20513;-72
2023/09/28 08:54:24;;;;;;;11.25;5.32;;;28.00;47.70;;;;;;5015001;28;20022;-71
2023/09/28 08:56:52;;;;;;;11.55;4.90;;;27.90;47.20;;;;;;5012950;28;20109;-73
2023/09/28 08:59:19;;;;;;;8.63;5.00;;;28.00;47.80;;;;;;4997366;28;20100;-72
2023/09/28 09:01:47;;;;;;;8.75;5.47;;;27.90;47.20;;;;;;5014614;28;20056;-71
2023/09/28 09:04:13;;;;;;;7.80;4.18;;;27.80;47.20;;;;;;5014623;28;20029;-71
2023/09/28 09:06:41;;;;;;;20.77;5.10;;;27.90;47.20;;;;;;5014321;28;20081;-72
2023/09/28 09:09:13;;;;;;;7.00;4.65;;;27.90;47.20;;;;;;5014545;28;20460;-72
2023/09/28 09:11:49;;;;;;;13.70;5.70;;;27.90;47.30;;;;;;5014220;28;20029;-71
2023/09/28 09:14:15;;;;;;;7.05;4.13;;;27.80;47.30;;;;;;5014212;28;20034;-72
2023/09/28 09:16:41;;;;;;;6.88;4.35;;;27.80;47.40;;;;;;5013850;28;20037;-72
2023/09/28 09:19:11;;;;;;;8.68;4.80;;;27.80;47.40;;;;;;5014445;28;20033;-72
2023/09/28 09:21:43;;;;;;;8.43;4.45;;;27.90;47.40;;;;;;5014162;28;20490;-72
2023/09/28 09:24:13;;;;;;;5.95;4.32;;;27.80;47.40;;;;;;5014346;28;20375;-72
2023/09/28 09:26:44;;;;;;;12.30;5.85;;;27.90;47.40;;;;;;5013696;28;20065;-72
2023/09/28 09:29:12;;;;;;;10.30;4.47;;;27.90;47.40;;;;;;5014371;28;20037;-72
2023/09/28 09:31:44;;;;;;;13.20;5.07;;;27.80;47.50;;;;;;5013968;28;20512;-72
2023/09/28 09:34:14;;;;;;;13.27;5.35;;;27.90;47.50;;;;;;5013335;28;20121;-72
2023/09/28 09:36:41;;;;;;;9.00;5.13;;;28.00;48.00;;;;;;5013797;28;20091;-71
2023/09/28 09:39:08;;;;;;;8.02;4.28;;;28.10;48.00;;;;;;5013885;28;20038;-72
2023/09/28 09:41:49;;;;;;;9.93;5.38;;;27.90;47.50;;;;;;5013208;28;20061;-72
2023/09/28 09:44:22;;;;;;;6.30;4.07;;;27.80;47.50;;;;;;5013484;28;20042;-72
2023/09/28 09:46:50;;;;;;;5.32;4.03;;;27.90;47.50;;;;;;5013452;28;20037;-72
2023/09/28 09:49:19;;;;;;;5.47;3.88;;;27.90;47.50;;;;;;5012362;28;20029;-72
2023/09/28 09:51:48;;;;;;;5.25;4.20;;;27.90;47.50;;;;;;5013887;28;20124;-72
2023/09/28 09:54:16;;;;;;;6.05;4.68;;;28.00;48.10;;;;;;5013637;28;20752;-72
2023/09/28 09:56:46;;;;;;;5.85;4.05;;;27.70;47.60;;;;;;5013425;28;20065;-72
2023/09/28 09:59:17;;;;;;;6.35;3.95;;;27.80;47.60;;;;;;5013446;28;20466;-72
2023/09/28 10:01:47;;;;;;;7.43;5.28;;;27.70;47.50;;;;;;5008379;28;20070;-72
2023/09/28 10:04:17;;;;;;;6.72;4.55;;;27.80;47.50;;;;;;4993848;28;20037;-72
2023/09/28 10:06:48;;;;;;;7.38;4.72;;;27.80;47.50;;;;;;4993992;28;20034;-72
2023/09/28 10:09:20;;;;;;;4.97;4.00;;;27.80;47.60;;;;;;4998257;28;20083;-72
2023/09/28 10:11:49;;;;;;;6.57;4.32;;;27.70;47.60;;;;;;5011678;28;20038;-73
2023/09/28 10:14:21;;;;;;;7.13;4.57;;;27.70;47.60;;;;;;5011807;28;20033;-71
2023/09/28 10:16:53;;;;;;;10.85;5.70;;;27.70;47.50;;;;;;5010646;28;20038;-71
2023/09/28 10:19:22;;;;;;;11.13;4.45;;;27.70;49.30;;;;;;5010995;28;20038;-69
2023/09/28 10:21:51;;;;;;;6.45;4.40;;;27.80;49.90;;;;;;5012922;28;20053;-71
2023/09/28 10:24:17;;;;;;;6.43;4.97;;;27.90;53.90;;;;;;5009256;28;20102;-71
2023/09/28 10:26:51;;;;;;;9.00;4.97;;;27.90;49.30;;;;;;4993594;28;20109;-71
2023/09/28 10:29:23;;;;;;;7.95;4.38;;;27.90;49.30;;;;;;5012205;28;20397;-70
2023/09/28 10:31:53;;;;;;;9.68;4.60;;;28.00;50.50;;;;;;5011495;28;20034;-70
2023/09/28 10:34:20;;;;;;;5.28;4.07;;;28.00;49.30;;;;;;5011644;28;20041;-70
2023/09/28 10:37:10;;;;;;;6.57;4.18;;;28.10;49.00;;;;;;5012246;28;20777;-71
2023/09/28 10:39:38;;;;;;;10.00;4.68;;;28.10;48.80;;;;;;5008070;28;20553;-70
2023/09/28 10:42:12;;;;;;;13.43;4.63;;;27.90;47.60;;;;;;5010481;28;20548;-73
2023/09/28 10:44:55;;;;;;;5.18;3.70;;;28.00;47.70;;;;;;5012419;28;20034;-73
2023/09/28 10:47:21;;;;;;;;;;;28.00;47.20;;;;;;5010700;28;20068;-73
2023/09/28 10:49:53;;;;;;;9.90;4.60;;;28.10;46.60;;;;;;5010229;28;19918;-75
2023/09/28 10:52:23;;;;;;;16.10;5.30;;;28.50;48.40;;;;;;5010371;28;20438;-72
2023/09/28 10:54:49;;;;;;;6.70;4.90;;;28.70;46.60;;;;;;5011932;28;20029;-73
2023/09/28 10:57:15;;;;;;;11.57;5.55;;;28.80;46.10;;;;;;5011691;28;20112;-70
2023/09/28 10:59:41;;;;;;;7.25;4.63;;;28.80;45.40;;;;;;5012457;28;20859;-71
2023/09/28 11:02:09;;;;;;;11.60;4.85;;;28.70;44.80;;;;;;5011372;28;20470;-72
2023/09/28 11:04:39;;;;;;;9.57;5.20;;;28.80;44.30;;;;;;5010281;28;20112;-74
2023/09/28 11:07:06;;;;;;;6.75;4.20;;;28.80;44.20;;;;;;5011581;28;20109;-72
2023/09/28 11:09:32;;;;;;;8.65;4.70;;;28.90;43.80;;;;;;5011626;28;20895;-73
2023/09/28 11:11:58;;;;;;;5.70;4.57;;;28.80;43.50;;;;;;5010569;28;20026;-72
2023/09/28 11:14:27;;;;;;;7.05;4.30;;;29.00;43.90;;;;;;4992467;28;20052;-71
2023/09/28 11:16:53;;;;;;;8.20;4.60;;;29.00;43.70;;;;;;5007221;28;20509;-72
2023/09/28 11:19:20;;;;;;;7.40;4.28;;;29.00;43.30;;;;;;5011077;28;20040;-73
2023/09/28 11:21:46;;;;;;;6.45;4.32;;;29.00;43.60;;;;;;5010436;28;20073;-71
2023/09/28 11:24:12;;;;;;;5.50;4.50;;;29.00;41.60;;;;;;5011149;28;20036;-71
2023/09/28 11:26:39;;;;;;;6.45;4.50;;;29.20;43.20;;;;;;5010512;28;20034;-71
2023/09/28 11:29:06;;;;;;;6.72;4.57;;;29.20;41.20;;;;;;5008799;28;20030;-71
2023/09/28 11:31:35;;;;;;;8.88;5.10;;;29.10;42.00;;;;;;5011050;28;20417;-70
2023/09/28 11:34:05;;;;;;;8.13;4.82;;;29.00;45.20;;;;;;4986419;28;20032;-70
2023/09/28 11:36:32;;;;;;;7.15;4.85;;;29.00;42.90;;;;;;5011693;28;20347;-70
2023/09/28 11:38:59;;;;;;;5.45;4.20;;;29.00;42.10;;;;;;5003586;28;20044;-71
2023/09/28 11:41:26;;;;;;;5.25;4.25;;;28.90;41.00;;;;;;5006440;28;20060;-70
2023/09/28 11:43:56;;;;;;;9.98;4.38;;;28.90;41.10;;;;;;5011893;28;20485;-71
2023/09/28 11:46:25;;;;;;;7.63;5.15;;;28.90;41.30;;;;;;5012484;28;20105;-71
2023/09/28 11:49:11;;;;;;;5.93;4.93;;;28.90;41.20;;;;;;5005862;28;20136;-70
2023/09/28 11:51:39;;;;;;;6.00;4.75;;;28.80;41.00;;;;;;5029122;28;20075;-71
2023/09/28 11:54:09;;;;;;;8.40;5.10;;;28.70;40.80;;;;;;5007703;28;20026;-70
2023/09/28 11:56:36;;;;;;;5.75;4.20;;;28.80;40.50;;;;;;5011160;28;20152;-71
2023/09/28 11:59:03;;;;;;;7.72;5.30;;;28.80;40.40;;;;;;5011493;28;20168;-71
2023/09/28 12:01:29;;;;;;;8.18;4.38;;;28.60;40.30;;;;;;5018780;28;20053;-71
2023/09/28 12:03:57;;;;;;;10.02;4.47;;;28.60;40.30;;;;;;5019211;28;20022;-69
2023/09/28 12:06:23;;;;;;;4.82;4.05;;;28.70;40.20;;;;;;5012443;28;20053;-72
2023/09/28 12:08:49;;;;;;;5.18;4.35;;;28.70;40.30;;;;;;4992675;28;20053;-72
2023/09/28 12:11:15;;;;;;;9.35;4.95;;;28.70;40.40;;;;;;5012201;28;20524;-71
2023/09/28 12:13:41;;;;;;;8.20;5.18;;;28.60;40.50;;;;;;5010364;28;20033;-72
2023/09/28 12:16:07;;;;;;;7.35;4.43;;;28.80;40.60;;;;;;5008450;28;20034;-72
2023/09/28 12:18:33;;;;;;;5.18;3.83;;;28.60;40.70;;;;;;5012259;28;20033;-70
2023/09/28 12:21:00;;;;;;;7.05;4.93;;;28.60;40.80;;;;;;4999495;28;20141;-71
2023/09/28 12:23:26;;;;;;;5.60;4.40;;;28.50;40.90;;;;;;5009098;28;20037;-71
2023/09/28 12:25:54;;;;;;;5.95;4.20;;;28.50;41.00;;;;;;5010842;28;20421;-71
2023/09/28 12:28:22;;;;;;;4.93;4.13;;;28.50;41.10;;;;;;5009646;28;20073;-72
2023/09/28 12:30:48;;;;;;;5.80;3.90;;;28.50;41.10;;;;;;5011356;28;20406;-72
2023/09/28 12:33:14;;;;;;;7.60;4.55;;;28.60;41.20;;;;;;4993516;28;20200;-72
2023/09/28 12:35:42;;;;;;;4.65;3.75;;;28.60;41.30;;;;;;5009675;28;20523;-72
2023/09/28 12:38:08;;;;;;;7.32;4.68;;;28.50;41.40;;;;;;5011404;28;20385;-72
2023/09/28 12:40:36;;;;;;;5.63;4.18;;;28.50;41.50;;;;;;5010964;28;20558;-72
2023/09/28 12:43:05;;;;;;;5.25;4.28;;;28.50;41.60;;;;;;5009543;28;20041;-72
2023/09/28 12:45:35;;;;;;;5.10;4.15;;;28.60;41.70;;;;;;5009798;28;20100;-72